sensor_id;sensor_type;location;lat;lon;timestamp;pressure;altitude;pressure_sealevel;temperature;humidity
3122;BME280;1571;52.524;14.104;2023-07-20T00:00:00;100454.94;;;16.09;100.00
3122;BME280;1571;52.524;14.104;2023-07-20T00:02:39;100460.59;;;16.15;100.00
3122;BME280;1571;52.524;14.104;2023-07-20T00:05:09;100464.53;;;16.11;100.00
3122;BME280;1571;52.524;14.104;2023-07-20T00:07:37;100471.31;;;16.15;100.00
3122;BME280;1571;52.524;14.104;2023-07-20T00:10:06;100459.31;;;16.10;100.00
3122;BME280;1571;52.524;14.104;2023-07-20T00:12:35;100463.09;;;15.97;100.00
3122;BME280;1571;52.524;14.104;2023-07-20T00:15:04;100468.75;;;16.04;100.00
3122;BME280;1571;52.524;14.104;2023-07-20T00:17:32;100469.88;;;16.01;100.00
3122;BME280;1571;52.524;14.104;2023-07-20T00:20:00;100480.66;;;15.80;100.00
3122;BME280;1571;52.524;14.104;2023-07-20T00:22:30;100482.38;;;15.91;100.00
3122;BME280;1571;52.524;14.104;2023-07-20T00:24:58;100478.28;;;15.87;100.00
3122;BME280;1571;52.524;14.104;2023-07-20T00:27:26;100486.94;;;15.70;100.00
3122;BME280;1571;52.524;14.104;2023-07-20T00:29:55;100500.13;;;15.61;100.00
3122;BME280;1571;52.524;14.104;2023-07-20T00:32:23;100493.50;;;15.87;100.00
3122;BME280;1571;52.524;14.104;2023-07-20T00:34:51;100485.09;;;16.01;100.00
3122;BME280;1571;52.524;14.104;2023-07-20T00:37:19;100481.13;;;15.95;100.00
3122;BME280;1571;52.524;14.104;2023-07-20T00:39:49;100476.06;;;15.92;100.00
3122;BME280;1571;52.524;14.104;2023-07-20T00:42:18;100483.94;;;15.94;100.00
3122;BME280;1571;52.524;14.104;2023-07-20T00:44:46;100494.34;;;15.87;100.00
3122;BME280;1571;52.524;14.104;2023-07-20T00:47:14;100498.19;;;15.94;100.00
3122;BME280;1571;52.524;14.104;2023-07-20T00:49:43;100504.78;;;15.90;100.00
3122;BME280;1571;52.524;14.104;2023-07-20T00:52:13;100499.44;;;16.00;100.00
3122;BME280;1571;52.524;14.104;2023-07-20T00:54:43;100491.84;;;15.95;100.00
3122;BME280;1571;52.524;14.104;2023-07-20T00:57:14;100498.00;;;15.86;100.00
3122;BME280;1571;52.524;14.104;2023-07-20T00:59:42;100499.84;;;15.86;100.00
3122;BME280;1571;52.524;14.104;2023-07-20T01:02:11;100503.00;;;15.70;100.00
3122;BME280;1571;52.524;14.104;2023-07-20T01:04:40;100500.41;;;15.58;100.00
3122;BME280;1571;52.524;14.104;2023-07-20T01:07:12;100506.00;;;15.55;100.00
3122;BME280;1571;52.524;14.104;2023-07-20T01:09:45;100500.41;;;15.58;100.00
3122;BME280;1571;52.524;14.104;2023-07-20T01:12:24;100507.66;;;15.47;100.00
3122;BME280;1571;52.524;14.104;2023-07-20T01:14:54;100507.13;;;15.53;100.00
3122;BME280;1571;52.524;14.104;2023-07-20T01:17:23;100498.44;;;15.60;100.00
3122;BME280;1571;52.524;14.104;2023-07-20T01:19:52;100504.25;;;15.66;100.00
3122;BME280;1571;52.524;14.104;2023-07-20T01:22:35;100503.41;;;15.44;100.00
3122;BME280;1571;52.524;14.104;2023-07-20T01:25:24;100504.31;;;15.54;100.00
3122;BME280;1571;52.524;14.104;2023-07-20T01:28:27;100495.31;;;15.55;100.00
3122;BME280;1571;52.524;14.104;2023-07-20T01:31:21;100496.69;;;15.50;100.00
3122;BME280;1571;52.524;14.104;2023-07-20T01:33:54;100492.47;;;15.47;100.00
3122;BME280;1571;52.524;14.104;2023-07-20T01:36:25;100490.50;;;15.49;100.00
3122;BME280;1571;52.524;14.104;2023-07-20T01:38:54;100487.38;;;15.44;100.00
3122;BME280;1571;52.524;14.104;2023-07-20T01:41:24;100495.75;;;15.30;100.00
3122;BME280;1571;52.524;14.104;2023-07-20T01:43:52;100492.22;;;15.29;100.00
3122;BME280;1571;52.524;14.104;2023-07-20T01:46:22;100488.13;;;15.25;100.00
3122;BME280;1571;52.524;14.104;2023-07-20T01:48:51;100489.16;;;15.13;100.00
3122;BME280;1571;52.524;14.104;2023-07-20T01:51:19;100489.38;;;15.00;100.00
3122;BME280;1571;52.524;14.104;2023-07-20T01:53:48;100492.63;;;14.83;100.00
3122;BME280;1571;52.524;14.104;2023-07-20T01:56:16;100497.38;;;14.79;100.00
3122;BME280;1571;52.524;14.104;2023-07-20T01:58:45;100496.28;;;14.82;100.00
3122;BME280;1571;52.524;14.104;2023-07-20T02:01:13;100500.47;;;14.95;100.00
3122;BME280;1571;52.524;14.104;2023-07-20T02:03:42;100506.19;;;14.91;100.00
3122;BME280;1571;52.524;14.104;2023-07-20T02:06:10;100496.22;;;14.93;100.00
3122;BME280;1571;52.524;14.104;2023-07-20T02:08:39;100500.97;;;14.68;100.00
3122;BME280;1571;52.524;14.104;2023-07-20T02:11:07;100503.72;;;14.99;100.00
3122;BME280;1571;52.524;14.104;2023-07-20T02:13:37;100506.38;;;14.99;100.00
3122;BME280;1571;52.524;14.104;2023-07-20T02:16:05;100502.59;;;15.02;100.00
3122;BME280;1571;52.524;14.104;2023-07-20T02:18:33;100498.69;;;15.06;100.00
3122;BME280;1571;52.524;14.104;2023-07-20T02:21:04;100492.91;;;14.80;100.00
3122;BME280;1571;52.524;14.104;2023-07-20T02:23:32;100509.69;;;14.70;100.00
3122;BME280;1571;52.524;14.104;2023-07-20T02:26:01;100506.97;;;14.82;100.00
3122;BME280;1571;52.524;14.104;2023-07-20T02:28:29;100507.44;;;14.87;100.00
3122;BME280;1571;52.524;14.104;2023-07-20T02:30:57;100508.94;;;14.80;100.00
3122;BME280;1571;52.524;14.104;2023-07-20T02:33:27;100502.72;;;14.79;100.00
3122;BME280;1571;52.524;14.104;2023-07-20T02:35:56;100486.63;;;14.69;100.00
3122;BME280;1571;52.524;14.104;2023-07-20T02:38:25;100486.16;;;14.64;100.00
3122;BME280;1571;52.524;14.104;2023-07-20T02:40:53;100489.56;;;14.66;100.00
3122;BME280;1571;52.524;14.104;2023-07-20T02:43:22;100505.69;;;14.65;100.00
3122;BME280;1571;52.524;14.104;2023-07-20T02:45:50;100501.41;;;14.73;100.00
3122;BME280;1571;52.524;14.104;2023-07-20T02:48:18;100502.13;;;14.75;100.00
3122;BME280;1571;52.524;14.104;2023-07-20T02:50:48;100503.81;;;14.76;100.00
3122;BME280;1571;52.524;14.104;2023-07-20T02:53:16;100504.16;;;14.83;100.00
3122;BME280;1571;52.524;14.104;2023-07-20T02:55:45;100495.31;;;14.83;100.00
3122;BME280;1571;52.524;14.104;2023-07-20T02:58:14;100492.75;;;14.81;100.00
3122;BME280;1571;52.524;14.104;2023-07-20T03:00:43;100496.78;;;14.75;100.00
3122;BME280;1571;52.524;14.104;2023-07-20T03:03:11;100496.53;;;14.78;100.00
3122;BME280;1571;52.524;14.104;2023-07-20T03:05:40;100493.66;;;14.70;100.00
3122;BME280;1571;52.524;14.104;2023-07-20T03:08:08;100501.81;;;14.69;100.00
3122;BME280;1571;52.524;14.104;2023-07-20T03:10:39;100501.41;;;14.73;100.00
3122;BME280;1571;52.524;14.104;2023-07-20T03:13:09;100507.47;;;14.75;100.00
3122;BME280;1571;52.524;14.104;2023-07-20T03:15:38;100513.06;;;14.72;100.00
3122;BME280;1571;52.524;14.104;2023-07-20T03:18:06;100506.09;;;14.81;100.00
3122;BME280;1571;52.524;14.104;2023-07-20T03:20:35;100510.88;;;14.77;100.00
3122;BME280;1571;52.524;14.104;2023-07-20T03:23:04;100516.22;;;14.77;100.00
3122;BME280;1571;52.524;14.104;2023-07-20T03:25:32;100521.97;;;14.73;100.00
3122;BME280;1571;52.524;14.104;2023-07-20T03:28:01;100519.50;;;14.70;100.00
3122;BME280;1571;52.524;14.104;2023-07-20T03:30:31;100530.72;;;14.64;100.00
3122;BME280;1571;52.524;14.104;2023-07-20T03:33:00;100538.56;;;14.76;100.00
3122;BME280;1571;52.524;14.104;2023-07-20T03:35:29;100536.38;;;14.82;100.00
3122;BME280;1571;52.524;14.104;2023-07-20T03:37:58;100541.91;;;14.90;100.00
3122;BME280;1571;52.524;14.104;2023-07-20T03:40:26;100551.88;;;14.88;100.00
3122;BME280;1571;52.524;14.104;2023-07-20T03:42:54;100546.34;;;15.01;100.00
3122;BME280;1571;52.524;14.104;2023-07-20T03:45:22;100554.38;;;15.01;100.00
3122;BME280;1571;52.524;14.104;2023-07-20T03:47:52;100550.88;;;15.00;100.00
3122;BME280;1571;52.524;14.104;2023-07-20T03:50:22;100548.53;;;15.07;100.00
3122;BME280;1571;52.524;14.104;2023-07-20T03:52:50;100547.78;;;15.26;100.00
3122;BME280;1571;52.524;14.104;2023-07-20T03:55:19;100545.91;;;15.37;100.00
3122;BME280;1571;52.524;14.104;2023-07-20T03:57:47;100545.72;;;15.29;100.00
3122;BME280;1571;52.524;14.104;2023-07-20T04:00:18;100550.41;;;15.37;100.00
3122;BME280;1571;52.524;14.104;2023-07-20T04:02:46;100546.25;;;15.23;100.00
3122;BME280;1571;52.524;14.104;2023-07-20T04:05:16;100545.84;;;15.28;100.00
3122;BME280;1571;52.524;14.104;2023-07-20T04:07:44;100546.63;;;15.18;100.00
3122;BME280;1571;52.524;14.104;2023-07-20T04:10:13;100551.97;;;15.18;100.00
3122;BME280;1571;52.524;14.104;2023-07-20T04:12:41;100554.38;;;15.22;100.00
3122;BME280;1571;52.524;14.104;2023-07-20T04:15:11;100562.06;;;15.15;100.00
3122;BME280;1571;52.524;14.104;2023-07-20T04:17:40;100568.81;;;15.09;100.00
3122;BME280;1571;52.524;14.104;2023-07-20T04:20:09;100561.44;;;15.23;100.00
3122;BME280;1571;52.524;14.104;2023-07-20T04:22:38;100566.31;;;15.17;100.00
3122;BME280;1571;52.524;14.104;2023-07-20T04:25:10;100561.94;;;15.37;100.00
3122;BME280;1571;52.524;14.104;2023-07-20T04:27:39;100566.78;;;15.44;100.00
3122;BME280;1571;52.524;14.104;2023-07-20T04:30:08;100565.50;;;15.38;100.00
3122;BME280;1571;52.524;14.104;2023-07-20T04:32:37;100572.31;;;15.31;100.00
3122;BME280;1571;52.524;14.104;2023-07-20T04:35:17;100564.50;;;15.39;100.00
3122;BME280;1571;52.524;14.104;2023-07-20T04:37:49;100574.09;;;15.41;100.00
3122;BME280;1571;52.524;14.104;2023-07-20T04:40:19;100572.97;;;15.44;100.00
3122;BME280;1571;52.524;14.104;2023-07-20T04:42:48;100566.25;;;15.29;100.00
3122;BME280;1571;52.524;14.104;2023-07-20T04:45:17;100580.50;;;15.29;100.00
3122;BME280;1571;52.524;14.104;2023-07-20T04:47:46;100581.22;;;15.31;100.00
3122;BME280;1571;52.524;14.104;2023-07-20T04:50:14;100577.66;;;15.31;100.00
3122;BME280;1571;52.524;14.104;2023-07-20T04:52:43;100579.38;;;15.32;100.00
3122;BME280;1571;52.524;14.104;2023-07-20T04:55:17;100583.00;;;15.31;100.00
3122;BME280;1571;52.524;14.104;2023-07-20T04:57:46;100574.75;;;15.34;100.00
3122;BME280;1571;52.524;14.104;2023-07-20T05:00:15;100579.31;;;15.43;100.00
3122;BME280;1571;52.524;14.104;2023-07-20T05:02:44;100579.88;;;15.26;100.00
3122;BME280;1571;52.524;14.104;2023-07-20T05:05:15;100589.22;;;15.31;100.00
3122;BME280;1571;52.524;14.104;2023-07-20T05:07:43;100586.47;;;15.22;100.00
3122;BME280;1571;52.524;14.104;2023-07-20T05:10:12;100593.78;;;15.19;100.00
3122;BME280;1571;52.524;14.104;2023-07-20T05:12:43;100600.50;;;15.35;100.00
3122;BME280;1571;52.524;14.104;2023-07-20T05:15:11;100596.59;;;15.39;100.00
3122;BME280;1571;52.524;14.104;2023-07-20T05:17:41;100600.66;;;15.54;100.00
3122;BME280;1571;52.524;14.104;2023-07-20T05:20:10;100601.94;;;15.60;100.00
3122;BME280;1571;52.524;14.104;2023-07-20T05:22:40;100605.34;;;15.83;100.00
3122;BME280;1571;52.524;14.104;2023-07-20T05:25:09;100584.50;;;15.87;100.00
3122;BME280;1571;52.524;14.104;2023-07-20T05:27:38;100593.56;;;15.95;100.00
3122;BME280;1571;52.524;14.104;2023-07-20T05:30:08;100585.63;;;16.15;100.00
3122;BME280;1571;52.524;14.104;2023-07-20T05:32:36;100574.72;;;16.07;100.00
3122;BME280;1571;52.524;14.104;2023-07-20T05:35:06;100582.25;;;16.32;100.00
3122;BME280;1571;52.524;14.104;2023-07-20T05:37:35;100569.47;;;16.36;100.00
3122;BME280;1571;52.524;14.104;2023-07-20T05:40:05;100565.94;;;16.35;100.00
3122;BME280;1571;52.524;14.104;2023-07-20T05:42:35;100569.97;;;16.20;100.00
3122;BME280;1571;52.524;14.104;2023-07-20T05:45:04;100563.09;;;16.27;100.00
3122;BME280;1571;52.524;14.104;2023-07-20T05:47:33;100570.41;;;16.25;100.00
3122;BME280;1571;52.524;14.104;2023-07-20T05:50:02;100570.25;;;16.17;100.00
3122;BME280;1571;52.524;14.104;2023-07-20T05:52:31;100562.94;;;16.19;100.00
3122;BME280;1571;52.524;14.104;2023-07-20T05:54:59;100562.34;;;16.06;100.00
3122;BME280;1571;52.524;14.104;2023-07-20T05:57:27;100567.41;;;16.09;100.00
3122;BME280;1571;52.524;14.104;2023-07-20T05:59:55;100574.75;;;16.16;100.00
3122;BME280;1571;52.524;14.104;2023-07-20T06:02:24;100571.09;;;16.08;100.00
3122;BME280;1571;52.524;14.104;2023-07-20T06:04:53;100570.88;;;16.30;100.00
3122;BME280;1571;52.524;14.104;2023-07-20T06:07:21;100564.09;;;16.36;100.00
3122;BME280;1571;52.524;14.104;2023-07-20T06:09:49;100551.72;;;16.44;100.00
3122;BME280;1571;52.524;14.104;2023-07-20T06:12:18;100550.03;;;16.53;100.00
3122;BME280;1571;52.524;14.104;2023-07-20T06:14:46;100557.13;;;16.74;100.00
3122;BME280;1571;52.524;14.104;2023-07-20T06:17:14;100562.78;;;16.80;100.00
3122;BME280;1571;52.524;14.104;2023-07-20T06:19:43;100560.69;;;16.94;100.00
3122;BME280;1571;52.524;14.104;2023-07-20T06:22:12;100562.22;;;17.06;100.00
3122;BME280;1571;52.524;14.104;2023-07-20T06:24:40;100563.22;;;17.05;100.00
3122;BME280;1571;52.524;14.104;2023-07-20T06:27:08;100565.88;;;17.24;100.00
3122;BME280;1571;52.524;14.104;2023-07-20T06:29:37;100558.84;;;17.14;100.00
3122;BME280;1571;52.524;14.104;2023-07-20T06:32:06;100550.50;;;16.88;100.00
3122;BME280;1571;52.524;14.104;2023-07-20T06:34:34;100540.78;;;17.16;99.90
3122;BME280;1571;52.524;14.104;2023-07-20T06:37:05;100545.97;;;16.78;100.00
3122;BME280;1571;52.524;14.104;2023-07-20T06:39:35;100540.59;;;17.17;100.00
3122;BME280;1571;52.524;14.104;2023-07-20T06:42:06;100538.91;;;17.73;100.00
3122;BME280;1571;52.524;14.104;2023-07-20T06:44:35;100546.59;;;17.58;100.00
3122;BME280;1571;52.524;14.104;2023-07-20T06:47:04;100554.63;;;17.68;100.00
3122;BME280;1571;52.524;14.104;2023-07-20T06:49:32;100553.16;;;17.36;99.24
3122;BME280;1571;52.524;14.104;2023-07-20T06:52:00;100554.72;;;17.19;99.35
3122;BME280;1571;52.524;14.104;2023-07-20T06:54:28;100554.16;;;17.25;98.58
3122;BME280;1571;52.524;14.104;2023-07-20T06:57:05;100557.59;;;17.65;98.87
3122;BME280;1571;52.524;14.104;2023-07-20T06:59:36;100550.97;;;18.06;98.17
3122;BME280;1571;52.524;14.104;2023-07-20T07:02:08;100548.84;;;18.28;93.69
3122;BME280;1571;52.524;14.104;2023-07-20T07:04:39;100551.06;;;17.77;91.08
3122;BME280;1571;52.524;14.104;2023-07-20T07:07:08;100545.47;;;18.26;90.23
3122;BME280;1571;52.524;14.104;2023-07-20T07:09:36;100545.84;;;18.59;89.82
3122;BME280;1571;52.524;14.104;2023-07-20T07:12:07;100549.53;;;18.58;88.92
3122;BME280;1571;52.524;14.104;2023-07-20T07:14:35;100551.13;;;18.68;88.65
3122;BME280;1571;52.524;14.104;2023-07-20T07:17:04;100559.84;;;18.35;88.53
3122;BME280;1571;52.524;14.104;2023-07-20T07:19:33;100554.13;;;18.47;87.66
3122;BME280;1571;52.524;14.104;2023-07-20T07:22:03;100564.31;;;18.44;88.13
3122;BME280;1571;52.524;14.104;2023-07-20T07:24:31;100569.66;;;18.54;87.69
3122;BME280;1571;52.524;14.104;2023-07-20T07:27:01;100568.00;;;18.88;85.72
3122;BME280;1571;52.524;14.104;2023-07-20T07:29:31;100574.13;;;18.63;84.70
3122;BME280;1571;52.524;14.104;2023-07-20T07:32:00;100576.22;;;18.14;85.39
3122;BME280;1571;52.524;14.104;2023-07-20T07:34:28;100584.97;;;17.88;84.98
3122;BME280;1571;52.524;14.104;2023-07-20T07:36:57;100584.41;;;17.75;85.79
3122;BME280;1571;52.524;14.104;2023-07-20T07:39:25;100586.84;;;17.68;86.04
3122;BME280;1571;52.524;14.104;2023-07-20T07:42:01;100587.81;;;17.77;85.91
3122;BME280;1571;52.524;14.104;2023-07-20T07:44:29;100591.19;;;17.88;85.24
3122;BME280;1571;52.524;14.104;2023-07-20T07:46:59;100599.00;;;18.09;85.73
3122;BME280;1571;52.524;14.104;2023-07-20T07:49:27;100594.19;;;18.13;84.98
3122;BME280;1571;52.524;14.104;2023-07-20T07:51:56;100596.81;;;18.23;84.93
3122;BME280;1571;52.524;14.104;2023-07-20T07:54:24;100600.72;;;18.38;83.29
3122;BME280;1571;52.524;14.104;2023-07-20T07:56:52;100602.47;;;18.29;82.75
3122;BME280;1571;52.524;14.104;2023-07-20T07:59:20;100605.38;;;18.36;82.95
3122;BME280;1571;52.524;14.104;2023-07-20T08:01:49;100605.13;;;18.29;81.93
3122;BME280;1571;52.524;14.104;2023-07-20T08:04:19;100609.50;;;18.30;81.71
3122;BME280;1571;52.524;14.104;2023-07-20T08:06:47;100604.38;;;18.37;80.83
3122;BME280;1571;52.524;14.104;2023-07-20T08:09:15;100606.56;;;18.79;80.19
3122;BME280;1571;52.524;14.104;2023-07-20T08:11:43;100601.56;;;19.20;77.94
3122;BME280;1571;52.524;14.104;2023-07-20T08:14:11;100597.97;;;18.93;76.86
3122;BME280;1571;52.524;14.104;2023-07-20T08:16:39;100590.81;;;19.20;76.29
3122;BME280;1571;52.524;14.104;2023-07-20T08:19:08;100597.53;;;19.42;76.82
3122;BME280;1571;52.524;14.104;2023-07-20T08:21:38;100600.94;;;19.44;75.90
3122;BME280;1571;52.524;14.104;2023-07-20T08:24:06;100591.34;;;19.94;74.84
3122;BME280;1571;52.524;14.104;2023-07-20T08:26:35;100588.66;;;19.94;72.94
3122;BME280;1571;52.524;14.104;2023-07-20T08:29:03;100591.88;;;19.71;72.11
3122;BME280;1571;52.524;14.104;2023-07-20T08:31:31;100597.19;;;19.63;72.49
3122;BME280;1571;52.524;14.104;2023-07-20T08:34:00;100603.81;;;19.69;72.24
3122;BME280;1571;52.524;14.104;2023-07-20T08:36:40;100598.44;;;19.69;70.57
3122;BME280;1571;52.524;14.104;2023-07-20T08:39:08;100609.22;;;19.69;70.74
3122;BME280;1571;52.524;14.104;2023-07-20T08:41:36;100606.03;;;19.73;69.79
3122;BME280;1571;52.524;14.104;2023-07-20T08:44:06;100602.88;;;19.78;70.03
3122;BME280;1571;52.524;14.104;2023-07-20T08:46:34;100609.59;;;19.56;69.72
3122;BME280;1571;52.524;14.104;2023-07-20T08:49:03;100606.31;;;19.88;70.27
3122;BME280;1571;52.524;14.104;2023-07-20T08:51:32;100614.78;;;20.02;69.95
3122;BME280;1571;52.524;14.104;2023-07-20T08:54:02;100611.91;;;19.51;67.81
3122;BME280;1571;52.524;14.104;2023-07-20T08:56:31;100604.94;;;20.18;66.84
3122;BME280;1571;52.524;14.104;2023-07-20T08:59:02;100605.03;;;20.01;65.49
3122;BME280;1571;52.524;14.104;2023-07-20T09:01:31;100605.66;;;20.63;65.32
3122;BME280;1571;52.524;14.104;2023-07-20T09:04:00;100610.66;;;20.15;64.11
3122;BME280;1571;52.524;14.104;2023-07-20T09:06:28;100618.09;;;20.22;64.52
3122;BME280;1571;52.524;14.104;2023-07-20T09:08:57;100614.16;;;20.50;64.47
3122;BME280;1571;52.524;14.104;2023-07-20T09:11:29;100622.22;;;20.42;64.25
3122;BME280;1571;52.524;14.104;2023-07-20T09:14:04;100621.56;;;20.40;64.92
3122;BME280;1571;52.524;14.104;2023-07-20T09:16:46;100628.28;;;20.36;65.32
3122;BME280;1571;52.524;14.104;2023-07-20T09:19:15;100627.03;;;20.65;65.07
3122;BME280;1571;52.524;14.104;2023-07-20T09:21:45;100629.16;;;21.04;64.48
3122;BME280;1571;52.524;14.104;2023-07-20T09:24:15;100625.47;;;21.29;62.57
3122;BME280;1571;52.524;14.104;2023-07-20T09:26:46;100618.19;;;21.05;61.06
3122;BME280;1571;52.524;14.104;2023-07-20T09:29:18;100629.03;;;20.20;61.99
3122;BME280;1571;52.524;14.104;2023-07-20T09:31:58;100634.13;;;19.97;62.65
3122;BME280;1571;52.524;14.104;2023-07-20T09:34:28;100635.59;;;20.17;63.44
3122;BME280;1571;52.524;14.104;2023-07-20T09:36:59;100635.41;;;20.11;63.86
3122;BME280;1571;52.524;14.104;2023-07-20T09:39:29;100642.19;;;19.97;62.89
3122;BME280;1571;52.524;14.104;2023-07-20T09:42:01;100645.59;;;19.99;62.87
3122;BME280;1571;52.524;14.104;2023-07-20T09:44:34;100641.72;;;20.02;64.16
3122;BME280;1571;52.524;14.104;2023-07-20T09:47:05;100646.59;;;19.98;63.98
3122;BME280;1571;52.524;14.104;2023-07-20T09:49:39;100635.06;;;19.88;64.25
3122;BME280;1571;52.524;14.104;2023-07-20T09:52:11;100643.13;;;19.80;65.73
3122;BME280;1571;52.524;14.104;2023-07-20T09:54:40;100634.31;;;20.30;64.00
3122;BME280;1571;52.524;14.104;2023-07-20T09:57:09;100635.19;;;20.89;63.30
3122;BME280;1571;52.524;14.104;2023-07-20T09:59:39;100624.09;;;21.25;61.71
3122;BME280;1571;52.524;14.104;2023-07-20T10:02:16;100630.81;;;20.88;62.17
3122;BME280;1571;52.524;14.104;2023-07-20T10:04:50;100622.00;;;22.09;59.23
3122;BME280;1571;52.524;14.104;2023-07-20T10:07:22;100608.44;;;22.17;56.76
3122;BME280;1571;52.524;14.104;2023-07-20T10:09:52;100616.34;;;21.14;57.72
3122;BME280;1571;52.524;14.104;2023-07-20T10:12:23;100626.00;;;20.57;59.30
3122;BME280;1571;52.524;14.104;2023-07-20T10:15:07;100626.06;;;20.82;60.39
3122;BME280;1571;52.524;14.104;2023-07-20T10:17:48;100614.47;;;21.39;60.49
3122;BME280;1571;52.524;14.104;2023-07-20T10:20:19;100613.56;;;22.04;58.63
3122;BME280;1571;52.524;14.104;2023-07-20T10:22:52;100616.94;;;22.06;58.32
3122;BME280;1571;52.524;14.104;2023-07-20T10:25:22;100613.19;;;22.15;56.79
3122;BME280;1571;52.524;14.104;2023-07-20T10:27:52;100612.06;;;22.01;57.00
3122;BME280;1571;52.524;14.104;2023-07-20T10:30:20;100612.97;;;21.36;56.43
3122;BME280;1571;52.524;14.104;2023-07-20T10:32:49;100613.34;;;21.41;56.81
3122;BME280;1571;52.524;14.104;2023-07-20T10:35:18;100599.81;;;21.50;57.00
3122;BME280;1571;52.524;14.104;2023-07-20T10:37:51;100609.94;;;21.72;57.25
3122;BME280;1571;52.524;14.104;2023-07-20T10:40:24;100607.25;;;21.31;56.80
3122;BME280;1571;52.524;14.104;2023-07-20T10:43:01;100617.16;;;20.98;57.41
3122;BME280;1571;52.524;14.104;2023-07-20T10:45:39;100612.09;;;20.78;58.65
3122;BME280;1571;52.524;14.104;2023-07-20T10:48:15;100620.50;;;20.33;59.06
3122;BME280;1571;52.524;14.104;2023-07-20T10:50:44;100632.53;;;20.12;60.10
3122;BME280;1571;52.524;14.104;2023-07-20T10:53:16;100640.16;;;19.91;60.24
3122;BME280;1571;52.524;14.104;2023-07-20T10:55:44;100642.78;;;19.39;62.51
3122;BME280;1571;52.524;14.104;2023-07-20T10:58:14;100649.38;;;18.90;66.51
3122;BME280;1571;52.524;14.104;2023-07-20T11:01:00;100636.53;;;18.84;67.28
3122;BME280;1571;52.524;14.104;2023-07-20T11:03:31;100646.22;;;18.95;66.61
3122;BME280;1571;52.524;14.104;2023-07-20T11:06:30;100642.38;;;18.98;66.26
3122;BME280;1571;52.524;14.104;2023-07-20T11:09:10;100648.16;;;18.85;66.51
3122;BME280;1571;52.524;14.104;2023-07-20T11:11:42;100637.94;;;19.06;66.28
3122;BME280;1571;52.524;14.104;2023-07-20T11:14:21;100639.41;;;19.19;66.30
3122;BME280;1571;52.524;14.104;2023-07-20T11:16:51;100639.44;;;19.45;66.39
3122;BME280;1571;52.524;14.104;2023-07-20T11:19:21;100634.22;;;19.61;66.20
3122;BME280;1571;52.524;14.104;2023-07-20T11:21:54;100638.25;;;19.83;64.63
3122;BME280;1571;52.524;14.104;2023-07-20T11:24:30;100638.63;;;19.88;63.57
3122;BME280;1571;52.524;14.104;2023-07-20T11:26:59;100632.22;;;19.89;63.27
3122;BME280;1571;52.524;14.104;2023-07-20T11:29:29;100644.03;;;19.88;63.87
3122;BME280;1571;52.524;14.104;2023-07-20T11:32:01;100636.88;;;20.74;63.24
3122;BME280;1571;52.524;14.104;2023-07-20T11:34:33;100626.13;;;21.07;61.98
3122;BME280;1571;52.524;14.104;2023-07-20T11:37:02;100624.78;;;21.27;60.09
3122;BME280;1571;52.524;14.104;2023-07-20T11:39:33;100625.66;;;21.69;60.44
3122;BME280;1571;52.524;14.104;2023-07-20T11:42:03;100626.44;;;21.86;58.89
3122;BME280;1571;52.524;14.104;2023-07-20T11:44:34;100625.81;;;21.59;58.86
3122;BME280;1571;52.524;14.104;2023-07-20T11:47:03;100621.78;;;21.55;57.97
3122;BME280;1571;52.524;14.104;2023-07-20T11:49:35;100617.19;;;21.72;58.25
3122;BME280;1571;52.524;14.104;2023-07-20T11:52:05;100617.34;;;21.87;59.18
3122;BME280;1571;52.524;14.104;2023-07-20T11:54:34;100605.44;;;22.12;57.41
3122;BME280;1571;52.524;14.104;2023-07-20T11:57:04;100619.47;;;22.08;57.69
3122;BME280;1571;52.524;14.104;2023-07-20T11:59:33;100617.53;;;21.69;58.16
3122;BME280;1571;52.524;14.104;2023-07-20T12:02:02;100615.66;;;21.36;59.14
3122;BME280;1571;52.524;14.104;2023-07-20T12:04:31;100616.72;;;21.60;58.68
3122;BME280;1571;52.524;14.104;2023-07-20T12:07:00;100611.31;;;21.60;58.05
3122;BME280;1571;52.524;14.104;2023-07-20T12:09:28;100610.06;;;21.87;57.77
3122;BME280;1571;52.524;14.104;2023-07-20T12:12:16;100607.09;;;22.30;56.61
3122;BME280;1571;52.524;14.104;2023-07-20T12:14:48;100607.00;;;22.46;55.92
3122;BME280;1571;52.524;14.104;2023-07-20T12:17:16;100611.53;;;22.22;55.77
3122;BME280;1571;52.524;14.104;2023-07-20T12:19:44;100604.84;;;22.73;54.11
3122;BME280;1571;52.524;14.104;2023-07-20T12:22:13;100596.63;;;23.12;53.21
3122;BME280;1571;52.524;14.104;2023-07-20T12:24:42;100585.25;;;23.17;52.38
3122;BME280;1571;52.524;14.104;2023-07-20T12:27:13;100594.81;;;22.81;53.13
3122;BME280;1571;52.524;14.104;2023-07-20T12:29:41;100594.84;;;22.42;54.19
3122;BME280;1571;52.524;14.104;2023-07-20T12:32:11;100612.19;;;22.16;55.52
3122;BME280;1571;52.524;14.104;2023-07-20T12:34:39;100593.47;;;22.54;54.41
3122;BME280;1571;52.524;14.104;2023-07-20T12:37:07;100595.78;;;22.89;54.29
3122;BME280;1571;52.524;14.104;2023-07-20T12:39:38;100591.56;;;22.63;54.18
3122;BME280;1571;52.524;14.104;2023-07-20T12:42:08;100597.41;;;22.98;54.01
3122;BME280;1571;52.524;14.104;2023-07-20T12:44:36;100595.25;;;22.62;53.89
3122;BME280;1571;52.524;14.104;2023-07-20T12:47:05;100607.69;;;22.48;54.90
3122;BME280;1571;52.524;14.104;2023-07-20T12:49:35;100605.44;;;22.12;54.67
3122;BME280;1571;52.524;14.104;2023-07-20T12:52:03;100607.81;;;22.07;55.07
3122;BME280;1571;52.524;14.104;2023-07-20T12:54:31;100603.16;;;22.40;54.71
3122;BME280;1571;52.524;14.104;2023-07-20T12:57:00;100610.81;;;22.91;53.91
3122;BME280;1571;52.524;14.104;2023-07-20T12:59:33;100601.44;;;22.79;53.80
3122;BME280;1571;52.524;14.104;2023-07-20T13:02:01;100615.63;;;21.94;55.28
3122;BME280;1571;52.524;14.104;2023-07-20T13:04:29;100617.06;;;21.40;56.61
3122;BME280;1571;52.524;14.104;2023-07-20T13:06:59;100620.91;;;20.54;57.90
3122;BME280;1571;52.524;14.104;2023-07-20T13:09:47;100619.09;;;20.21;59.27